NCAR-RAP Real-Time Weather Data

Output produced by METARs form (12 May 2021  11:43 UTC)
found at http://weather.rap.ucar.edu/surface/
 
KCON 121051Z AUTO 29007KT 10SM FEW034 08/01 A2999 RMK AO2 SLP157 T00780011
KCON 120951Z AUTO 28006KT 10SM CLR 06/00 A2998 RMK AO2 SLP152 T00610000
KCON 120851Z AUTO 29004KT 10SM CLR 05/M01 A2996 RMK AO2 SLP146 T00501011 53005
KCON 120751Z AUTO 00000KT 10SM SCT075 05/M02 A2994 RMK AO2 SLP141 T00501022
KCON 120651Z AUTO 25005KT 10SM CLR 06/M02 A2994 RMK AO2 SLP139 T00611022
KCON 120551Z AUTO 24005KT 10SM CLR 06/M03 A2994 RMK AO2 SLP140 T00611033 10122 20061 58002
KCON 120451Z AUTO 24003KT 10SM FEW100 07/M04 A2995 RMK AO2 SLP142 T00721039 401670072
KCON 120351Z AUTO 26006KT 10SM SCT120 08/M04 A2995 RMK AO2 SLP143 T00831039
KCON 120251Z AUTO 25006KT 10SM CLR 09/M04 A2995 RMK AO2 SLP142 T00891039 51011
KCON 120151Z AUTO 25007KT 10SM CLR 09/M04 A2995 RMK AO2 SLP142 T00941044
KCON 120051Z AUTO 25007KT 10SM CLR 11/M07 A2993 RMK AO2 SLP137 T01061067
KCON 112351Z AUTO 29008KT 10SM SCT110 12/M07 A2991 RMK AO2 SLP131 60000 T01221072 10167 20122 53011
KCON 112251Z AUTO 29010G18KT 10SM BKN090 13/M06 A2990 RMK AO2 RAB37E46 SLP126 P0000 T01331061
KCON 112151Z AUTO 28010G17KT 10SM OVC100 14/M06 A2989 RMK AO2 PK WND 28026/2129 SLP123 T01391061
KCON 112051Z AUTO 29011KT 10SM OVC095 14/M05 A2988 RMK AO2 SLP120 T01441050 55004